Time;durP1;ratioP1;P1;durP2;ratioP2;P2;SDS_P1;SDS_P2;PMS_P1;PMS_P2;Temp;Humidity;BMP_temperature;BMP_pressure;BME280_temperature;BME280_humidity;BME280_pressure;Samples;Min_cycle;Max_cycle;Signal;HPM_P1;HPM_P2
2023/10/20 00:30:14;;;;;;;;;;;;;;;11.55;100;98626.97;;;;-84
2023/10/20 00:35:18;;;;;;;;;;;;;;;11.47;100;98637.89;;;;-83
2023/10/20 00:36:38;;;;;;;59;25.8;;;;;;;;;;;;;-84
2023/10/20 00:40:00;;;;;;;;;;;;;;;11.47;100;98641.86;;;;-83
2023/10/20 00:45:10;;;;;;;;;;;;;;;11.39;100;98649.92;;;;-83
2023/10/20 00:50:23;;;;;;;;;;;;;;;11.42;100;98642.04;;;;-84
2023/10/20 01:00:13;;;;;;;;;;;;;;;11.29;100;98646.55;;;;-86
2023/10/20 01:05:14;;;;;;;;;;;;;;;11.31;100;98641.77;;;;-85
2023/10/20 01:06:48;;;;;;;55.5;25.9;;;;;;;;;;;;;-85
2023/10/20 01:10:10;;;;;;;;;;;;;;;11.23;100;98646.3;;;;-86
2023/10/20 01:15:06;;;;;;;;;;;;;;;11.16;100;98651.78;;;;-85
2023/10/20 01:20:12;;;;;;;;;;;;;;;11.11;100;98644.39;;;;-85
2023/10/20 01:25:29;;;;;;;;;;;;;;;10.62;100;98557.19;;;;-86
2023/10/20 01:30:21;;;;;;;;;;;;;;;11.1;100;98616.53;;;;-85
2023/10/20 01:40:13;;;;;;;;;;;;;;;11.07;100;98616.97;;;;-86
2023/10/20 01:50:21;;;;;;;;;;;;;;;10.97;100;98602.16;;;;-87
2023/10/20 01:55:08;;;;;;;;;;;;;;;10.83;100;98595.11;;;;-85
2023/10/20 02:00:17;;;;;;;;;;;;;;;10.77;100;98608.54;;;;-86
2023/10/20 02:06:47;;;;;;;64.5;25.8;;;;;;;;;;;;;-85
2023/10/20 02:10:11;;;;;;;;;;;;;;;10.72;100;98582.09;;;;-85
2023/10/20 07:50:09;;;;;;;;;;;;;;;8.86;100;98210.46;;;;-77
2023/10/20 08:21:54;;;;;;;;;;;;;;;8.66;100;98185.31;;;;-77
2023/10/20 08:37:06;;;;;;;11;5.8;;;;;;;;;;;;;-77
2023/10/20 08:43:48;;;;;;;;;;;;;;;8.67;100;98182.29;;;;-77
2023/10/20 08:51:25;;;;;;;;;;;;;;;8.61;100;98184.08;;;;-76
2023/10/20 10:01:54;;;;;;;;;;;;;;;8.37;100;98131.59;;;;-74
2023/10/20 10:06:48;;;;;;;;;;;;;;;8.41;100;98129.47;;;;-74
2023/10/20 10:11:34;;;;;;;;;;;;;;;8.42;100;98129.2;;;;-74
2023/10/20 10:16:29;;;;;;;;;;;;;;;8.39;100;98128.14;;;;-74
2023/10/20 10:21:32;;;;;;;;;;;;;;;8.36;100;98113.68;;;;-75
2023/10/20 10:26:30;;;;;;;;;;;;;;;8.38;100;98092.9;;;;-74
2023/10/20 10:31:41;;;;;;;;;;;;;;;8.37;100;98095;;;;-74
2023/10/20 10:36:40;;;;;;;;;;;;;;;8.39;100;98111.16;;;;-74
2023/10/20 10:36:57;;;;;;;4.7;2.5;;;;;;;;;;;;;-74
2023/10/20 10:41:34;;;;;;;;;;;;;;;8.39;100;98110.15;;;;-73
2023/10/20 10:46:42;;;;;;;;;;;;;;;8.41;100;98087.95;;;;-73
2023/10/20 10:51:30;;;;;;;;;;;;;;;8.41;100;98070.28;;;;-73
2023/10/20 10:56:30;;;;;;;;;;;;;;;8.35;100;98065.38;;;;-73
2023/10/20 11:01:34;;;;;;;;;;;;;;;8.35;100;98058.05;;;;-75
2023/10/20 11:06:32;;;;;;;;;;;;;;;8.36;100;98055.64;;;;-73
2023/10/20 11:06:47;;;;;;;4.8;2.3;;;;;;;;;;;;;-73
2023/10/20 11:11:31;;;;;;;;;;;;;;;8.33;100;98044.66;;;;-73
2023/10/20 11:16:33;;;;;;;;;;;;;;;8.37;100;98039.86;;;;-74
2023/10/20 11:21:44;;;;;;;;;;;;;;;8.38;100;98014.48;;;;-74
2023/10/20 11:26:30;;;;;;;;;;;;;;;8.42;100;98000.81;;;;-75
2023/10/20 11:31:32;;;;;;;;;;;;;;;8.43;100;98003.88;;;;-75
2023/10/20 11:36:34;;;;;;;;;;;;;;;8.41;100;97980.95;;;;-76
2023/10/20 11:36:47;;;;;;;3.2;1.6;;;;;;;;;;;;;-78
2023/10/20 11:41:30;;;;;;;;;;;;;;;8.4;100;97965.27;;;;-78
2023/10/20 11:46:29;;;;;;;;;;;;;;;8.41;100;97961.88;;;;-76
2023/10/20 11:51:30;;;;;;;;;;;;;;;8.32;100;97960.83;;;;-75
2023/10/20 11:56:32;;;;;;;;;;;;;;;8.32;100;97946.13;;;;-77
2023/10/20 12:01:31;;;;;;;;;;;;;;;8.36;100;97941.32;;;;-76
2023/10/20 12:06:29;;;;;;;;;;;;;;;8.35;100;97932.46;;;;-76
2023/10/20 12:06:48;;;;;;;2.5;1.2;;;;;;;;;;;;;-76
2023/10/20 12:11:29;;;;;;;;;;;;;;;8.36;100;97929.09;;;;-77
2023/10/20 12:16:29;;;;;;;;;;;;;;;8.3;100;97918.44;;;;-77
2023/10/20 12:21:32;;;;;;;;;;;;;;;8.36;100;97920.28;;;;-76
2023/10/20 12:26:32;;;;;;;;;;;;;;;8.34;100;97915.89;;;;-76
2023/10/20 12:31:30;;;;;;;;;;;;;;;8.36;100;97898.6;;;;-76
2023/10/20 12:36:31;;;;;;;;;;;;;;;8.38;100;97904.03;;;;-76
2023/10/20 12:45:54;;;;;;;;;;;;;;;8.38;100;97905.59;;;;-76
2023/10/20 12:51:08;;;;;;;;;;;;;;;8.39;100;97895.38;;;;-77
2023/10/20 12:55:52;;;;;;;;;;;;;;;8.34;100;97891.44;;;;-77
2023/10/20 13:01:08;;;;;;;;;;;;;;;8.35;100;97885.38;;;;-77
2023/10/20 13:06:10;;;;;;;;;;;;;;;8.3;100;97887.13;;;;-77
2023/10/20 13:06:56;;;;;;;2.5;1.3;;;;;;;;;;;;;-77
2023/10/20 13:16:10;;;;;;;;;;;;;;;8.28;100;97876.02;;;;-78
2023/10/20 13:21:14;;;;;;;;;;;;;;;8.31;100;97863.68;;;;-77
2023/10/20 13:35:47;;;;;;;;;;;;;;;8.29;100;97853.53;;;;-82
2023/10/20 13:36:49;;;;;;;1.9;1;;;;;;;;;;;;;-77
2023/10/20 13:40:49;;;;;;;;;;;;;;;8.31;100;97858.98;;;;-76
2023/10/20 13:45:48;;;;;;;;;;;;;;;8.31;100;97862.32;;;;-77
2023/10/20 13:50:47;;;;;;;;;;;;;;;8.29;100;97860.27;;;;-77
2023/10/20 14:13:27;;;;;;;;;;;;;;;8.3;100;97925.67;;;;-79
2023/10/20 14:23:12;;;;;;;;;;;;;;;8.31;100;97924.61;;;;-80
2023/10/20 14:28:32;;;;;;;;;;;;;;;;;;;;;
2023/10/20 14:41:20;;;;;;;;;;;;;;;;;;;;;
2023/10/20 14:54:40;;;;;;;;;;;;;;;8.41;100;97888.71;;;;-78
2023/10/20 14:59:29;;;;;;;;;;;;;;;8.4;100;97880.28;;;;-77
2023/10/20 15:04:31;;;;;;;;;;;;;;;8.42;100;97878.22;;;;-79
2023/10/20 15:07:03;;;;;;;1.8;0.8;;;;;;;;;;;;;-78
2023/10/20 15:09:44;;;;;;;;;;;;;;;8.42;100;97877.19;;;;-80
2023/10/20 15:14:49;;;;;;;;;;;;;;;;;;;;;
2023/10/20 15:20:03;;;;;;;;;;;;;;;;;;;;;
2023/10/20 16:33:20;;;;;;;;;;;;;;;8.7;100;97866.61;;;;-75
2023/10/20 16:38:07;;;;;;;;;;;;;;;8.12;100;97767.55;;;;-75
2023/10/20 16:44:31;;;;;;;;;;;;;;;8.74;100;97869.53;;;;-76
2023/10/20 17:43:32;;;;;;;;;;;;;;;9.39;100;97861.03;;;;-75
2023/10/20 17:53:50;;;;;;;;;;;;;;;;;;;;;
2023/10/20 18:03:32;;;;;;;;;;;;;;;9.91;100;97877.1;;;;-76
2023/10/20 18:07:13;;;;;;;20;10.9;;;;;;;;;;;;;-77
2023/10/20 18:08:01;;;;;;;;;;;;;;;10.04;100;97880.64;;;;-77
2023/10/20 18:12:46;;;;;;;;;;;;;;;10.2;100;97880.73;;;;-77
2023/10/20 18:17:44;;;;;;;;;;;;;;;10.38;100;97887;;;;-76
2023/10/20 18:32:58;;;;;;;;;;;;;;;10.84;100;97899.46;;;;-79
2023/10/20 18:37:21;;;;;;;47.2;18.9;;;;;;;;;;;;;-78
2023/10/20 18:45:07;;;;;;;;;;;;;;;;;;;;;
2023/10/20 18:50:13;;;;;;;;;;;;;;;11.25;100;97905.58;;;;-77
2023/10/20 18:54:57;;;;;;;;;;;;;;;11.37;100;97899.44;;;;-76
2023/10/20 18:59:47;;;;;;;;;;;;;;;11.52;100;97895.17;;;;-77
2023/10/20 19:04:45;;;;;;;;;;;;;;;;;;;;;
2023/10/20 19:07:21;;;;;;;85.2;26.7;;;;;;;;;;;;;-76
2023/10/20 19:13:55;;;;;;;;;;;;;;;12.06;100;97917.52;;;;-76
2023/10/20 19:18:56;;;;;;;;;;;;;;;12.25;100;97920.34;;;;-76
2023/10/20 19:23:55;;;;;;;;;;;;;;;12.4;100;97920.83;;;;-76
2023/10/20 19:28:56;;;;;;;;;;;;;;;12.53;100;97929.06;;;;-76
2023/10/20 19:33:58;;;;;;;;;;;;;;;12.64;100;97943.29;;;;-75
2023/10/20 19:38:54;;;;;;;;;;;;;;;12.63;100;97947.55;;;;-77
2023/10/20 19:43:56;;;;;;;;;;;;;;;12.75;100;97962.61;;;;-76
2023/10/20 19:48:57;;;;;;;;;;;;;;;12.8;100;97976.61;;;;-76
2023/10/20 19:53:55;;;;;;;;;;;;;;;12.87;100;97986.77;;;;-76
2023/10/20 19:58:55;;;;;;;;;;;;;;;12.93;100;97987.29;;;;-76
2023/10/20 20:03:55;;;;;;;;;;;;;;;12.94;100;97988.22;;;;-76
2023/10/20 20:06:59;;;;;;;63.5;25.3;;;;;;;;;;;;;-75
2023/10/20 20:08:54;;;;;;;;;;;;;;;12.94;100;98002.28;;;;-75
2023/10/20 20:14:03;;;;;;;;;;;;;;;13;100;98007.53;;;;-75
2023/10/20 20:18:56;;;;;;;;;;;;;;;12.98;100;98014.69;;;;-75
2023/10/20 20:23:55;;;;;;;;;;;;;;;12.98;100;98019.83;;;;-75
2023/10/20 20:28:55;;;;;;;;;;;;;;;12.95;100;98033.47;;;;-76
2023/10/20 20:33:55;;;;;;;;;;;;;;;12.9;100;98034.96;;;;-76
2023/10/20 20:37:03;;;;;;;48.3;20.9;;;;;;;;;;;;;-75
2023/10/20 20:38:56;;;;;;;;;;;;;;;12.89;100;98036.16;;;;-76
2023/10/20 20:43:54;;;;;;;;;;;;;;;12.87;100;98054.72;;;;-75
2023/10/20 20:48:55;;;;;;;;;;;;;;;12.82;100;98056.88;;;;-75
2023/10/20 20:53:55;;;;;;;;;;;;;;;12.83;100;98064.01;;;;-74
2023/10/20 20:58:55;;;;;;;;;;;;;;;12.89;100;98070.1;;;;-75
2023/10/20 21:04:00;;;;;;;;;;;;;;;12.91;100;98075.95;;;;-75
2023/10/20 21:07:03;;;;;;;45.9;21.6;;;;;;;;;;;;;-75
2023/10/20 21:08:55;;;;;;;;;;;;;;;12.95;100;98077.67;;;;-75
2023/10/20 21:13:55;;;;;;;;;;;;;;;12.96;100;98080.7;;;;-76
2023/10/20 21:18:56;;;;;;;;;;;;;;;12.98;100;98084.23;;;;-76
2023/10/20 21:23:55;;;;;;;;;;;;;;;12.96;100;98091.97;;;;-75
2023/10/20 21:28:55;;;;;;;;;;;;;;;12.97;100;98092.8;;;;-76
2023/10/20 21:34:03;;;;;;;;;;;;;;;12.98;100;98094.25;;;;-73
2023/10/20 21:37:03;;;;;;;45.1;19.8;;;;;;;;;;;;;-76
2023/10/20 21:38:58;;;;;;;;;;;;;;;12.93;100;98101.22;;;;-75
2023/10/20 21:43:55;;;;;;;;;;;;;;;12.96;100;98108.19;;;;-75
2023/10/20 21:48:55;;;;;;;;;;;;;;;12.96;100;98115.22;;;;-75
2023/10/20 21:53:55;;;;;;;;;;;;;;;12.94;100;98114.39;;;;-74
2023/10/20 21:58:58;;;;;;;;;;;;;;;12.96;100;98124.16;;;;-76
2023/10/20 22:03:55;;;;;;;;;;;;;;;12.92;100;98122.2;;;;-76
2023/10/20 22:07:05;;;;;;;32.7;15.8;;;;;;;;;;;;;-74
2023/10/20 22:08:55;;;;;;;;;;;;;;;12.97;100;98139.83;;;;-74
2023/10/20 22:13:55;;;;;;;;;;;;;;;12.98;100;98149.39;;;;-75
2023/10/20 22:18:57;;;;;;;;;;;;;;;12.95;100;98146.89;;;;-74
2023/10/20 22:23:55;;;;;;;;;;;;;;;12.93;100;98152.7;;;;-74
2023/10/20 22:28:55;;;;;;;;;;;;;;;12.91;100;98158.98;;;;-75
2023/10/20 22:33:55;;;;;;;;;;;;;;;12.83;100;98168.3;;;;-75
2023/10/20 22:37:07;;;;;;;38.8;16.4;;;;;;;;;;;;;-74
2023/10/20 22:38:55;;;;;;;;;;;;;;;12.77;100;98171.34;;;;-75
2023/10/20 22:43:58;;;;;;;;;;;;;;;12.75;100;98176.05;;;;-75
2023/10/20 22:48:57;;;;;;;;;;;;;;;12.69;100;98180.88;;;;-74
2023/10/20 22:53:54;;;;;;;;;;;;;;;12.63;100;98186.52;;;;-75
2023/10/20 22:58:56;;;;;;;;;;;;;;;12.56;100;98184.05;;;;-74
2023/10/20 23:03:57;;;;;;;;;;;;;;;12.53;100;98190.23;;;;-75
2023/10/20 23:07:22;;;;;;;38.6;18.5;;;;;;;;;;;;;-75
2023/10/20 23:08:54;;;;;;;;;;;;;;;12.46;100;98195.78;;;;-75
2023/10/20 23:13:55;;;;;;;;;;;;;;;12.41;100;98202.91;;;;-75
2023/10/20 23:18:56;;;;;;;;;;;;;;;12.36;100;98212.33;;;;-76
2023/10/20 23:23:55;;;;;;;;;;;;;;;12.28;100;98214.17;;;;-75
2023/10/20 23:28:58;;;;;;;;;;;;;;;12.22;100;98217.28;;;;-75
2023/10/20 23:33:54;;;;;;;;;;;;;;;12.23;100;98225.91;;;;-75
2023/10/20 23:37:09;;;;;;;46.2;20.6;;;;;;;;;;;;;-74
2023/10/20 23:38:54;;;;;;;;;;;;;;;12.17;100;98232.56;;;;-75
2023/10/20 23:43:55;;;;;;;;;;;;;;;12.15;100;98241.55;;;;-75
2023/10/20 23:48:55;;;;;;;;;;;;;;;12.14;100;98253.06;;;;-75
2023/10/20 23:53:55;;;;;;;;;;;;;;;12.11;100;98265.72;;;;-75
2023/10/20 23:58:55;;;;;;;;;;;;;;;12.1;100;98277.99;;;;-74
